Time;durP1;ratioP1;P1;durP2;ratioP2;P2;SDS_P1;SDS_P2;PMS_P1;PMS_P2;Temp;Humidity;BMP_temperature;BMP_pressure;BME280_temperature;BME280_humidity;BME280_pressure;Samples;Min_cycle;Max_cycle;Signal;HPM_P1;HPM_P2
2022/12/23 00:01:38;;;;;;;127.35;46.95;;;8.00;99.90;;;;;;7367360;19;20056;-44
2022/12/23 00:04:07;;;;;;;158.93;51.80;;;8.00;99.90;;;;;;7363051;19;20807;-43
2022/12/23 00:06:39;;;;;;;169.52;53.58;;;8.00;99.90;;;;;;7371058;19;20028;-46
2022/12/23 00:09:05;;;;;;;167.50;55.70;;;8.10;99.90;;;;;;7364144;19;20022;-45
2022/12/23 00:11:31;;;;;;;107.32;46.40;;;8.10;99.90;;;;;;7371982;19;20029;-45
2022/12/23 00:16:43;;;;;;;136.00;51.28;;;8.10;99.90;;;;;;7367310;19;20383;-48
2022/12/23 00:19:09;;;;;;;206.82;58.28;;;8.10;99.90;;;;;;7368060;19;20512;-47
2022/12/23 00:21:36;;;;;;;174.07;54.58;;;8.10;99.90;;;;;;7375612;19;20026;-46
2022/12/23 00:24:02;;;;;;;154.35;50.80;;;8.10;99.90;;;;;;7368855;19;20015;-46
2022/12/23 00:26:29;;;;;;;124.80;45.70;;;8.00;99.90;;;;;;7373417;19;20018;-48
2022/12/23 00:28:57;;;;;;;106.88;45.78;;;8.00;99.90;;;;;;7377596;19;20010;-44
2022/12/23 00:31:24;;;;;;;315.40;65.47;;;8.10;99.90;;;;;;7374484;19;20580;-49
2022/12/23 00:33:52;;;;;;;160.65;52.45;;;8.10;99.90;;;;;;7379155;19;20339;-46
2022/12/23 00:36:27;;;;;;;189.45;55.47;;;8.10;99.90;;;;;;7379254;19;20018;-48
2022/12/23 00:44:28;;;;;;;109.13;43.35;;;8.10;99.90;;;;;;7378453;19;20384;-46
2022/12/23 00:46:55;;;;;;;222.45;52.38;;;8.10;99.90;;;;;;7380663;19;20374;-45
2022/12/23 00:52:09;;;;;;;189.55;50.38;;;8.10;99.90;;;;;;7376301;19;20022;-46
2022/12/23 00:54:36;;;;;;;124.25;47.03;;;8.10;99.90;;;;;;7378190;19;20362;-49
2022/12/23 00:57:03;;;;;;;136.02;47.15;;;8.10;99.90;;;;;;7378125;19;20527;-45
2022/12/23 00:59:29;;;;;;;133.02;46.30;;;8.10;99.90;;;;;;7379172;19;20049;-44
2022/12/23 01:07:25;;;;;;;126.53;45.50;;;8.00;99.90;;;;;;7365155;19;20109;-46
2022/12/23 01:09:51;;;;;;;136.18;46.90;;;8.10;99.90;;;;;;7367282;19;20035;-44
2022/12/23 01:12:18;;;;;;;104.18;42.92;;;8.10;99.90;;;;;;7369910;19;20014;-44
2022/12/23 01:14:47;;;;;;;101.88;42.70;;;8.00;99.90;;;;;;7366679;19;20514;-45
2022/12/23 01:17:15;;;;;;;96.55;42.10;;;8.10;99.90;;;;;;7366525;19;20493;-46
2022/12/23 01:19:41;;;;;;;113.53;45.03;;;8.10;99.90;;;;;;7365247;19;20049;-45
2022/12/23 01:22:18;;;;;;;116.45;47.33;;;8.10;99.90;;;;;;7365109;19;20017;-45
2022/12/23 01:24:45;;;;;;;113.90;48.15;;;8.10;99.90;;;;;;7368604;19;20025;-45
2022/12/23 01:27:11;;;;;;;127.60;49.00;;;8.00;99.90;;;;;;7363661;19;20018;-47
2022/12/23 01:29:37;;;;;;;132.70;48.03;;;8.10;99.90;;;;;;7366512;19;20622;-45
2022/12/23 01:32:04;;;;;;;141.07;50.78;;;8.00;99.90;;;;;;7369164;19;20014;-45
2022/12/23 01:34:30;;;;;;;121.63;48.08;;;8.00;99.90;;;;;;7366500;19;20026;-47
2022/12/23 01:37:06;;;;;;;122.13;49.50;;;8.00;99.90;;;;;;7364172;19;20026;-45
2022/12/23 01:39:33;;;;;;;104.72;47.47;;;8.00;99.90;;;;;;7359779;19;20015;-46
2022/12/23 01:45:02;;;;;;;139.50;52.28;;;8.00;99.90;;;;;;7365833;19;20025;-47
2022/12/23 01:48:16;;;;;;;108.78;46.47;;;8.00;99.90;;;;;;7363706;19;20677;-46
2022/12/23 01:50:55;;;;;;;124.82;48.58;;;8.00;99.90;;;;;;7366186;19;20053;-47
2022/12/23 01:53:33;;;;;;;150.23;50.70;;;8.00;99.90;;;;;;7367145;19;20019;-46
2022/12/23 01:56:06;;;;;;;119.50;46.28;;;8.00;99.90;;;;;;7366012;19;20023;-46
2022/12/23 01:58:59;;;;;;;118.88;46.42;;;8.00;99.90;;;;;;7368247;19;20014;-48
2022/12/23 02:04:24;;;;;;;143.90;48.83;;;8.00;99.90;;;;;;7361685;19;20390;-45
2022/12/23 02:09:38;;;;;;;147.43;49.88;;;8.00;99.90;;;;;;7363219;19;20022;-47
2022/12/23 02:12:25;;;;;;;165.23;52.40;;;8.00;99.90;;;;;;7367804;19;21084;-46
2022/12/23 02:18:04;;;;;;;177.13;53.42;;;8.00;99.90;;;;;;7363800;19;20533;-45
2022/12/23 02:20:45;;;;;;;127.72;45.78;;;8.00;99.90;;;;;;7364870;19;20026;-48
2022/12/23 02:23:21;;;;;;;152.10;50.88;;;8.00;99.90;;;;;;7370318;19;20577;-45
2022/12/23 02:25:53;;;;;;;156.35;49.53;;;8.00;99.90;;;;;;7360866;19;20128;-46
2022/12/23 02:28:47;;;;;;;180.05;50.80;;;8.00;99.90;;;;;;7362133;19;20045;-46
2022/12/23 02:31:28;;;;;;;141.70;47.95;;;8.00;99.90;;;;;;7363150;19;20019;-45
2022/12/23 02:34:01;;;;;;;170.25;50.08;;;8.00;99.90;;;;;;7362310;19;20025;-44
2022/12/23 02:36:53;;;;;;;124.05;44.55;;;8.00;99.90;;;;;;7363016;19;20018;-45
2022/12/23 02:39:36;;;;;;;144.40;45.95;;;8.00;99.90;;;;;;7365284;19;20518;-46
2022/12/23 02:42:15;;;;;;;137.70;45.22;;;8.00;99.90;;;;;;7368692;19;20022;-46
2022/12/23 02:44:55;;;;;;;142.07;45.40;;;8.00;99.90;;;;;;7362466;19;20394;-46
2022/12/23 02:47:32;;;;;;;101.63;39.03;;;8.00;99.90;;;;;;7367159;19;20018;-45
2022/12/23 02:50:05;;;;;;;133.90;43.88;;;8.00;99.90;;;;;;7373404;19;20114;-46
2022/12/23 02:52:35;;;;;;;125.80;41.20;;;8.00;99.90;;;;;;7371630;19;20022;-47
2022/12/23 02:55:08;;;;;;;106.05;38.65;;;8.00;99.90;;;;;;7371731;19;20015;-46
2022/12/23 02:57:42;;;;;;;102.68;38.15;;;8.00;99.90;;;;;;7369076;19;20316;-47
2022/12/23 03:00:09;;;;;;;94.15;37.33;;;8.00;99.90;;;;;;7374318;19;20608;-45
2022/12/23 03:02:40;;;;;;;114.75;39.78;;;8.00;99.90;;;;;;7371240;19;20018;-47
2022/12/23 03:05:40;;;;;;;81.15;33.42;;;7.90;99.90;;;;;;7370820;19;20487;-45
2022/12/23 03:08:19;;;;;;;98.05;35.53;;;8.00;99.90;;;;;;7364822;19;20105;-45
2022/12/23 03:11:00;;;;;;;103.15;34.30;;;7.90;99.90;;;;;;7371352;19;20022;-47
2022/12/23 03:13:51;;;;;;;80.27;32.33;;;7.90;99.90;;;;;;7370644;19;20652;-48
2022/12/23 03:16:26;;;;;;;82.13;33.45;;;7.90;99.90;;;;;;7370415;19;20025;-47
2022/12/23 03:19:29;;;;;;;77.82;32.05;;;7.90;99.90;;;;;;7372616;19;20010;-45
2022/12/23 03:22:31;;;;;;;96.22;34.78;;;7.90;99.90;;;;;;7372928;19;20485;-47
2022/12/23 03:25:16;;;;;;;103.78;36.60;;;7.80;99.90;;;;;;7373663;19;20473;-46
2022/12/23 03:28:02;;;;;;;119.70;38.80;;;7.80;99.90;;;;;;7365976;19;20450;-47
2022/12/23 03:30:30;;;;;;;119.82;38.80;;;7.80;99.90;;;;;;7369779;19;20050;-47
2022/12/23 03:33:03;;;;;;;110.63;37.33;;;7.80;99.90;;;;;;7366533;19;20041;-48
2022/12/23 03:35:44;;;;;;;142.82;40.97;;;7.90;99.90;;;;;;7372007;19;20397;-48
2022/12/23 03:38:13;;;;;;;109.03;36.25;;;7.80;99.90;;;;;;7371410;19;20022;-45
2022/12/23 03:40:52;;;;;;;132.20;39.35;;;7.90;99.90;;;;;;7368526;19;20438;-46
2022/12/23 03:43:40;;;;;;;143.32;37.75;;;7.90;99.90;;;;;;7370243;19;20015;-47
2022/12/23 03:46:13;;;;;;;132.30;38.30;;;7.90;99.90;;;;;;7371397;19;20446;-46
2022/12/23 03:48:51;;;;;;;113.43;37.38;;;7.90;99.90;;;;;;7370929;19;20023;-48
2022/12/23 03:51:22;;;;;;;156.40;38.65;;;7.90;99.90;;;;;;7368180;19;20023;-47
2022/12/23 03:53:55;;;;;;;163.27;41.47;;;7.90;99.90;;;;;;7371172;19;20798;-49
2022/12/23 03:56:33;;;;;;;132.32;37.85;;;7.90;99.90;;;;;;7367856;19;20026;-46
2022/12/23 03:59:06;;;;;;;162.80;39.67;;;7.90;99.90;;;;;;7367804;19;21633;-48
2022/12/23 04:01:32;;;;;;;177.18;41.95;;;7.90;99.90;;;;;;7370085;19;20022;-49
2022/12/23 04:04:04;;;;;;;147.18;37.75;;;7.90;99.90;;;;;;7367062;19;20018;-46
2022/12/23 04:06:39;;;;;;;163.90;40.88;;;7.90;99.90;;;;;;7368968;19;20473;-49
2022/12/23 04:09:06;;;;;;;165.75;39.97;;;7.90;99.90;;;;;;7371555;19;20015;-48
2022/12/23 04:11:34;;;;;;;130.13;36.45;;;7.90;99.90;;;;;;7368669;19;20018;-46
2022/12/23 04:14:01;;;;;;;206.88;43.03;;;7.90;99.90;;;;;;7370455;19;20507;-49
2022/12/23 04:16:28;;;;;;;160.35;39.08;;;7.90;99.90;;;;;;7367399;19;20034;-46
2022/12/23 04:18:55;;;;;;;158.68;39.83;;;7.90;99.90;;;;;;7370782;19;20015;-47
2022/12/23 04:21:21;;;;;;;131.18;36.55;;;7.90;99.90;;;;;;7367751;19;20322;-45
2022/12/23 04:23:47;;;;;;;145.02;37.78;;;7.90;99.90;;;;;;7371040;19;20015;-47
2022/12/23 04:26:14;;;;;;;142.27;36.08;;;7.90;99.90;;;;;;7367252;19;20018;-49
2022/12/23 04:28:40;;;;;;;136.02;35.05;;;7.90;99.90;;;;;;7364893;19;20019;-50
2022/12/23 04:31:06;;;;;;;105.05;33.53;;;7.90;99.90;;;;;;7368086;19;20589;-46
2022/12/23 04:33:33;;;;;;;123.95;36.53;;;7.90;99.90;;;;;;7368503;19;20473;-44
2022/12/23 04:35:59;;;;;;;136.35;34.80;;;7.90;99.90;;;;;;7364211;19;20022;-47
2022/12/23 04:38:26;;;;;;;130.45;35.13;;;7.90;99.90;;;;;;7367109;19;20037;-46
2022/12/23 04:40:55;;;;;;;98.82;31.95;;;7.90;99.90;;;;;;7370464;19;20453;-45
2022/12/23 04:43:21;;;;;;;134.48;34.90;;;7.90;99.90;;;;;;7369466;19;20029;-44
2022/12/23 04:45:51;;;;;;;118.45;34.10;;;7.90;99.90;;;;;;7371464;19;20022;-45
2022/12/23 04:48:18;;;;;;;98.25;30.23;;;7.90;99.90;;;;;;7367741;19;20011;-48
2022/12/23 04:50:44;;;;;;;90.30;29.23;;;7.90;99.90;;;;;;7364479;19;20018;-48
2022/12/23 04:53:10;;;;;;;92.35;29.05;;;7.90;99.90;;;;;;7377036;19;20354;-49
2022/12/23 04:55:37;;;;;;;98.93;29.77;;;7.90;99.90;;;;;;7370011;19;20359;-44
2022/12/23 04:58:03;;;;;;;100.45;30.17;;;7.80;99.90;;;;;;7376196;19;20053;-44
2022/12/23 05:00:29;;;;;;;126.90;31.17;;;7.80;99.90;;;;;;7370889;19;20026;-45
2022/12/23 05:02:56;;;;;;;108.38;31.77;;;7.80;99.90;;;;;;7376619;19;20022;-47
2022/12/23 05:05:22;;;;;;;97.30;28.77;;;7.80;99.90;;;;;;7375658;19;20049;-46
2022/12/23 05:07:49;;;;;;;110.57;29.50;;;7.80;99.90;;;;;;7374394;19;20033;-44
2022/12/23 05:10:15;;;;;;;99.95;29.88;;;7.80;99.90;;;;;;7372429;19;20022;-46
2022/12/23 05:12:41;;;;;;;75.93;27.58;;;7.80;99.90;;;;;;7374358;19;20019;-45
2022/12/23 05:15:08;;;;;;;125.78;31.70;;;7.70;99.90;;;;;;7373498;19;20026;-46
2022/12/23 05:17:35;;;;;;;95.15;29.98;;;7.70;99.90;;;;;;7374819;19;20086;-45
2022/12/23 05:20:02;;;;;;;89.20;29.63;;;7.70;99.90;;;;;;7373614;19;20517;-46
2022/12/23 05:22:28;;;;;;;95.50;30.48;;;7.70;99.90;;;;;;7373812;19;21573;-46
2022/12/23 05:24:54;;;;;;;100.50;29.27;;;7.70;99.90;;;;;;7374289;19;20018;-46
2022/12/23 05:27:21;;;;;;;114.53;32.20;;;7.70;99.90;;;;;;7366338;19;20549;-45
2022/12/23 05:29:47;;;;;;;120.03;32.45;;;7.70;99.90;;;;;;7366891;19;20352;-46
2022/12/23 05:32:14;;;;;;;108.47;31.63;;;7.70;99.90;;;;;;7367334;19;20676;-48
2022/12/23 05:34:40;;;;;;;122.15;31.92;;;7.70;99.90;;;;;;7364454;19;20305;-44
2022/12/23 05:37:06;;;;;;;132.05;34.60;;;7.70;99.90;;;;;;7349753;19;20014;-45
2022/12/23 05:39:33;;;;;;;152.48;35.70;;;7.70;99.90;;;;;;7364595;19;20019;-45
2022/12/23 05:41:59;;;;;;;133.07;35.00;;;7.70;99.90;;;;;;7365204;19;20023;-45
2022/12/23 05:44:25;;;;;;;104.72;31.73;;;7.70;99.90;;;;;;7364375;19;20014;-47
2022/12/23 05:46:52;;;;;;;162.43;36.67;;;7.70;99.90;;;;;;7367562;19;20029;-47
2022/12/23 05:49:18;;;;;;;163.13;34.63;;;7.70;99.90;;;;;;7362522;19;20524;-46
2022/12/23 05:51:52;;;;;;;180.68;37.83;;;7.60;99.90;;;;;;7368708;19;20040;-48
2022/12/23 05:54:19;;;;;;;224.88;40.47;;;7.60;99.90;;;;;;7366210;19;20053;-45
2022/12/23 05:56:45;;;;;;;198.88;37.03;;;7.60;99.90;;;;;;7363558;19;20026;-45
2022/12/23 05:59:11;;;;;;;260.45;41.55;;;7.60;99.90;;;;;;7363801;19;20336;-44
2022/12/23 06:01:37;;;;;;;333.15;43.13;;;7.60;99.90;;;;;;7357157;19;20472;-47
2022/12/23 06:04:04;;;;;;;377.75;46.20;;;7.60;99.90;;;;;;7358048;19;20516;-46
2022/12/23 06:06:30;;;;;;;425.17;48.00;;;7.60;99.90;;;;;;7358781;19;20015;-48
2022/12/23 06:08:56;;;;;;;259.25;37.47;;;7.50;99.90;;;;;;7360320;19;20379;-45
2022/12/23 06:11:22;;;;;;;479.08;49.90;;;7.50;99.90;;;;;;7359213;19;20480;-47
2022/12/23 06:13:49;;;;;;;362.13;41.67;;;7.50;99.90;;;;;;7361490;19;20675;-46
2022/12/23 06:16:16;;;;;;;365.92;39.70;;;7.50;99.90;;;;;;7358082;19;20433;-46
2022/12/23 06:18:42;;;;;;;467.35;46.38;;;7.50;99.90;;;;;;7355734;19;20022;-47
2022/12/23 06:21:12;;;;;;;423.83;44.17;;;7.50;99.90;;;;;;7357403;19;20053;-44
2022/12/23 06:23:38;;;;;;;490.95;46.78;;;7.50;99.90;;;;;;7356383;19;20025;-46
2022/12/23 06:26:04;;;;;;;486.25;45.53;;;7.40;99.90;;;;;;7352791;19;20026;-44
2022/12/23 06:28:31;;;;;;;450.15;44.00;;;7.40;99.90;;;;;;7362441;19;20014;-46
2022/12/23 06:30:57;;;;;;;293.33;32.58;;;7.40;99.90;;;;;;7364099;19;20463;-48
2022/12/23 06:33:24;;;;;;;411.02;39.47;;;7.40;99.90;;;;;;7365909;19;20021;-45
2022/12/23 06:35:50;;;;;;;402.45;41.08;;;7.40;99.90;;;;;;7360571;19;20339;-45
2022/12/23 06:38:16;;;;;;;428.85;40.70;;;7.40;99.90;;;;;;7365938;19;20029;-45
2022/12/23 06:40:43;;;;;;;530.80;49.38;;;7.40;99.90;;;;;;7359480;19;20737;-47
2022/12/23 06:43:12;;;;;;;427.27;42.53;;;7.40;99.90;;;;;;7363434;19;20097;-46
2022/12/23 06:45:39;;;;;;;417.83;38.97;;;7.30;99.90;;;;;;7360122;19;20102;-46
2022/12/23 06:48:06;;;;;;;376.98;37.30;;;7.40;99.90;;;;;;7362152;19;20019;-46
2022/12/23 06:50:32;;;;;;;360.05;36.88;;;7.30;99.90;;;;;;7362596;19;20026;-46
2022/12/23 06:52:59;;;;;;;465.05;42.63;;;7.40;99.90;;;;;;7358282;19;20086;-48
2022/12/23 06:55:26;;;;;;;369.95;38.13;;;7.40;99.90;;;;;;7361777;19;20018;-45
2022/12/23 06:57:52;;;;;;;447.73;39.05;;;7.30;99.90;;;;;;7363434;19;20378;-48
2022/12/23 07:00:22;;;;;;;468.75;42.13;;;7.40;99.90;;;;;;7360853;19;20019;-45
2022/12/23 07:02:48;;;;;;;320.05;33.65;;;7.30;99.90;;;;;;7364168;19;20053;-49
2022/12/23 07:05:15;;;;;;;301.25;32.28;;;7.30;99.90;;;;;;7364381;19;20026;-45
2022/12/23 07:07:42;;;;;;;446.75;42.42;;;7.30;99.90;;;;;;7360949;19;20037;-45
2022/12/23 07:10:10;;;;;;;463.70;45.83;;;7.30;99.90;;;;;;7363165;19;20022;-45
2022/12/23 07:12:36;;;;;;;473.00;45.30;;;7.30;99.90;;;;;;7364303;19;20489;-49
2022/12/23 07:15:04;;;;;;;383.95;43.15;;;7.30;99.90;;;;;;7362659;19;20015;-45
2022/12/23 07:17:30;;;;;;;374.13;39.80;;;7.30;99.90;;;;;;7364153;19;20010;-47
2022/12/23 07:19:56;;;;;;;442.63;41.65;;;7.30;99.90;;;;;;7362196;19;20019;-49
2022/12/23 07:22:24;;;;;;;278.35;35.00;;;7.20;99.90;;;;;;7364018;19;20358;-46
2022/12/23 07:24:50;;;;;;;279.75;34.92;;;7.30;99.90;;;;;;7364352;19;20073;-47
2022/12/23 07:27:16;;;;;;;303.90;35.25;;;7.30;99.90;;;;;;7363679;19;20469;-45
2022/12/23 07:29:43;;;;;;;257.23;33.30;;;7.30;99.90;;;;;;7358389;19;20657;-47
2022/12/23 07:32:09;;;;;;;240.20;31.73;;;7.30;99.90;;;;;;7362336;19;20078;-47
2022/12/23 07:34:35;;;;;;;180.32;25.77;;;7.30;99.90;;;;;;7363279;19;20406;-47
2022/12/23 07:37:06;;;;;;;333.75;35.75;;;7.30;99.90;;;;;;7363659;19;20039;-46
2022/12/23 07:39:33;;;;;;;295.55;35.72;;;7.30;99.90;;;;;;7364234;19;21859;-47
2022/12/23 07:41:59;;;;;;;289.48;36.53;;;7.30;99.90;;;;;;7361756;19;20049;-45
2022/12/23 07:44:25;;;;;;;250.10;32.50;;;7.30;99.90;;;;;;7363259;19;20019;-46
2022/12/23 07:46:52;;;;;;;334.70;38.20;;;7.40;99.90;;;;;;7362310;19;21118;-49
2022/12/23 07:49:18;;;;;;;201.77;31.85;;;7.30;99.90;;;;;;7359826;19;20418;-48
2022/12/23 07:51:44;;;;;;;267.98;35.95;;;7.40;99.90;;;;;;7353811;19;20019;-47
2022/12/23 07:54:16;;;;;;;252.43;36.13;;;7.40;99.90;;;;;;7360066;19;20031;-48
2022/12/23 07:56:42;;;;;;;377.00;42.22;;;7.40;99.90;;;;;;7357058;19;20070;-45
2022/12/23 07:59:08;;;;;;;331.95;35.35;;;7.40;99.90;;;;;;7361721;19;20023;-45
2022/12/23 08:01:49;;;;;;;256.67;35.00;;;7.40;99.90;;;;;;7361438;19;20019;-46
2022/12/23 08:04:16;;;;;;;209.00;29.98;;;7.40;99.90;;;;;;7365032;19;20025;-46
2022/12/23 08:06:42;;;;;;;232.57;33.13;;;7.40;99.90;;;;;;7365006;19;20145;-47
2022/12/23 08:09:08;;;;;;;360.02;43.20;;;7.40;99.90;;;;;;7362088;19;20021;-46
2022/12/23 08:11:35;;;;;;;188.65;31.20;;;7.40;99.90;;;;;;7362408;19;20027;-46
2022/12/23 08:14:01;;;;;;;223.23;33.38;;;7.40;99.90;;;;;;7360141;19;20015;-45
2022/12/23 08:16:27;;;;;;;230.95;36.50;;;7.40;99.90;;;;;;7361530;19;20022;-49
2022/12/23 08:18:54;;;;;;;244.25;34.33;;;7.40;99.90;;;;;;7362603;19;20018;-47
2022/12/23 08:21:20;;;;;;;375.58;44.30;;;7.40;99.90;;;;;;7362285;19;20020;-46
2022/12/23 08:23:48;;;;;;;331.00;40.03;;;7.40;99.90;;;;;;7361364;19;20614;-48
2022/12/23 08:26:23;;;;;;;263.05;34.42;;;7.40;99.90;;;;;;7366532;19;20022;-47
2022/12/23 08:28:52;;;;;;;251.00;35.63;;;7.40;99.90;;;;;;7373481;19;20133;-47
2022/12/23 08:31:21;;;;;;;266.38;34.20;;;7.40;99.90;;;;;;7368171;19;20018;-51
2022/12/23 08:33:50;;;;;;;215.75;32.30;;;7.40;99.90;;;;;;7371311;19;20011;-46
2022/12/23 08:36:23;;;;;;;249.85;33.40;;;7.40;99.90;;;;;;7367500;19;20157;-50
2022/12/23 08:38:56;;;;;;;251.75;33.72;;;7.40;99.90;;;;;;7369652;19;20029;-46
2022/12/23 08:41:25;;;;;;;234.63;34.78;;;7.40;99.90;;;;;;7370963;19;20019;-50
2022/12/23 08:43:52;;;;;;;237.93;33.30;;;7.40;99.90;;;;;;7369544;19;20029;-48
2022/12/23 08:46:19;;;;;;;238.00;35.95;;;7.40;99.90;;;;;;7365269;19;20374;-46
2022/12/23 08:48:45;;;;;;;270.23;37.17;;;7.40;99.90;;;;;;7367216;19;20024;-47
2022/12/23 08:51:15;;;;;;;282.83;39.50;;;7.40;99.90;;;;;;7366094;19;20018;-47
2022/12/23 08:53:43;;;;;;;156.10;30.23;;;7.40;99.90;;;;;;7366210;19;20563;-50
2022/12/23 08:56:14;;;;;;;210.63;29.98;;;7.50;99.90;;;;;;7367318;19;20416;-46
2022/12/23 08:58:44;;;;;;;144.40;29.05;;;7.50;99.90;;;;;;7366462;19;20063;-45
2022/12/23 09:01:13;;;;;;;239.95;35.78;;;7.50;99.90;;;;;;7368316;19;20927;-45
2022/12/23 09:03:41;;;;;;;185.20;33.78;;;7.50;99.90;;;;;;7362292;19;20018;-48
2022/12/23 09:06:15;;;;;;;233.63;31.13;;;7.60;99.90;;;;;;7368257;19;20018;-49
2022/12/23 09:08:42;;;;;;;186.73;31.13;;;7.60;99.90;;;;;;7351552;19;20026;-49
2022/12/23 09:11:11;;;;;;;119.13;27.60;;;7.60;99.90;;;;;;7362896;19;20029;-46
2022/12/23 09:13:38;;;;;;;125.53;27.10;;;7.60;99.90;;;;;;7358504;19;20369;-51
2022/12/23 09:16:04;;;;;;;341.05;37.90;;;7.60;99.90;;;;;;7360137;19;20606;-48
2022/12/23 09:18:42;;;;;;;170.82;28.90;;;7.60;99.90;;;;;;7357037;19;20029;-47
2022/12/23 09:21:17;;;;;;;174.52;26.95;;;7.60;99.90;;;;;;7361741;19;20018;-48
2022/12/23 09:23:43;;;;;;;185.77;27.70;;;7.70;99.90;;;;;;7358072;19;20026;-45
2022/12/23 09:26:27;;;;;;;231.68;30.75;;;7.70;99.90;;;;;;7362057;19;20043;-46
2022/12/23 09:28:54;;;;;;;237.35;32.08;;;7.70;99.90;;;;;;7355062;19;20022;-49
2022/12/23 09:31:23;;;;;;;156.75;27.40;;;7.80;99.90;;;;;;7360138;19;20041;-49
2022/12/23 09:33:51;;;;;;;218.88;31.10;;;7.80;99.90;;;;;;7350935;19;20077;-47
2022/12/23 09:36:21;;;;;;;152.45;30.85;;;7.80;99.90;;;;;;7363862;19;20569;-46
2022/12/23 09:38:52;;;;;;;154.80;29.05;;;7.80;99.90;;;;;;7361786;19;20107;-45
2022/12/23 09:41:49;;;;;;;97.25;25.88;;;7.90;99.90;;;;;;7358964;19;20015;-49
2022/12/23 09:44:47;;;;;;;81.22;24.45;;;7.90;99.90;;;;;;7352798;19;20018;-46
2022/12/23 09:47:21;;;;;;;68.15;23.92;;;8.00;99.90;;;;;;7357622;19;20790;-60
2022/12/23 09:49:52;;;;;;;100.25;27.00;;;8.00;99.90;;;;;;7357392;19;20014;-60
2022/12/23 09:52:29;;;;;;;91.15;24.85;;;8.10;99.90;;;;;;7359462;19;20074;-60
2022/12/23 09:54:57;;;;;;;61.72;22.83;;;8.10;99.90;;;;;;7361206;19;20018;-61
2022/12/23 09:57:49;;;;;;;46.80;19.45;;;8.10;99.90;;;;;;7351710;19;20026;-60
2022/12/23 10:00:18;;;;;;;45.33;18.55;;;8.10;99.90;;;;;;7356270;19;20137;-61
2022/12/23 10:03:12;;;;;;;41.03;18.17;;;8.10;99.90;;;;;;7352940;19;20593;-60
2022/12/23 10:05:44;;;;;;;43.08;18.98;;;8.10;99.90;;;;;;7336485;19;20452;-61
2022/12/23 10:08:38;;;;;;;43.50;18.83;;;8.10;99.90;;;;;;7354630;19;20026;-61
2022/12/23 10:11:16;;;;;;;47.88;20.30;;;8.10;99.90;;;;;;7355767;19;20423;-60
2022/12/23 10:13:50;;;;;;;49.33;20.10;;;8.20;99.90;;;;;;7357628;19;20543;-60
2022/12/23 10:16:42;;;;;;;49.08;20.13;;;8.20;99.90;;;;;;7354875;19;20024;-60
2022/12/23 10:19:47;;;;;;;37.90;16.77;;;8.30;99.90;;;;;;7355251;19;20482;-60
2022/12/23 10:22:52;;;;;;;53.42;21.13;;;8.30;99.90;;;;;;7353140;19;20048;-47
2022/12/23 10:25:36;;;;;;;54.60;21.38;;;8.30;99.90;;;;;;7353989;19;20927;-48
2022/12/23 10:28:03;;;;;;;47.60;21.02;;;8.20;99.90;;;;;;7355586;19;20651;-47
2022/12/23 10:30:35;;;;;;;43.97;18.77;;;8.20;99.90;;;;;;7358235;19;21057;-49
2022/12/23 10:33:23;;;;;;;36.38;17.60;;;8.20;99.90;;;;;;7347464;19;20033;-50
2022/12/23 10:36:47;;;;;;;29.77;16.98;;;8.20;99.90;;;;;;7357820;19;20042;-49
2022/12/23 10:39:25;;;;;;;46.00;18.15;;;8.10;99.90;;;;;;7354352;19;20028;-50
2022/12/23 10:41:59;;;;;;;40.38;19.08;;;8.20;99.90;;;;;;7354178;19;20425;-51
2022/12/23 10:44:38;;;;;;;39.45;18.77;;;8.20;99.90;;;;;;7353657;19;20466;-49
2022/12/23 10:47:19;;;;;;;46.08;19.75;;;8.20;99.90;;;;;;7357989;19;20638;-49
2022/12/23 10:49:52;;;;;;;39.72;19.10;;;8.20;99.90;;;;;;7351059;19;20018;-51
2022/12/23 10:52:21;;;;;;;41.10;20.42;;;8.30;99.90;;;;;;7356173;19;20450;-50
2022/12/23 10:54:48;;;;;;;35.85;18.08;;;8.30;99.90;;;;;;7351819;19;20482;-48
2022/12/23 10:57:18;;;;;;;37.85;19.33;;;8.30;99.90;;;;;;7357854;19;20429;-46
2022/12/23 10:59:45;;;;;;;38.03;18.38;;;8.30;99.90;;;;;;7357679;19;20026;-50
2022/12/23 11:02:11;;;;;;;34.13;18.08;;;8.30;99.90;;;;;;7359182;19;20021;-48
2022/12/23 11:04:48;;;;;;;33.55;17.30;;;8.40;99.90;;;;;;7356806;19;20501;-60
2022/12/23 11:07:25;;;;;;;31.95;17.58;;;8.40;99.90;;;;;;7354152;19;20015;-60
2022/12/23 11:10:06;;;;;;;35.88;17.08;;;8.30;99.90;;;;;;7354494;19;20478;-60
2022/12/23 11:12:43;;;;;;;28.58;16.23;;;8.30;99.90;;;;;;7357182;19;20608;-59
2022/12/23 11:15:27;;;;;;;33.22;15.95;;;8.30;99.90;;;;;;7356440;19;20374;-60
2022/12/23 11:18:03;;;;;;;31.38;15.85;;;8.30;99.90;;;;;;7351779;19;20030;-60
2022/12/23 11:20:31;;;;;;;27.05;14.40;;;8.30;99.90;;;;;;7358484;19;20014;-59
2022/12/23 11:23:01;;;;;;;29.67;15.48;;;8.30;99.90;;;;;;7356830;19;20045;-59
2022/12/23 11:25:36;;;;;;;26.00;14.98;;;8.30;99.90;;;;;;7355584;19;20101;-59
2022/12/23 11:28:13;;;;;;;29.90;16.75;;;8.30;99.90;;;;;;7353869;19;20060;-60
2022/12/23 11:30:49;;;;;;;32.25;16.95;;;8.30;99.90;;;;;;7354190;19;20506;-60
2022/12/23 11:33:39;;;;;;;33.17;17.45;;;8.30;99.90;;;;;;7357235;19;20089;-60
2022/12/23 11:36:11;;;;;;;28.92;16.25;;;8.30;99.90;;;;;;7353014;19;20484;-60
2022/12/23 11:38:51;;;;;;;28.25;16.92;;;8.30;99.90;;;;;;7353322;19;20022;-59
2022/12/23 11:41:32;;;;;;;27.90;14.95;;;8.30;99.90;;;;;;7357471;19;20063;-60
2022/12/23 11:44:19;;;;;;;30.73;17.13;;;8.40;99.90;;;;;;7355160;19;20402;-50
2022/12/23 11:46:47;;;;;;;30.02;17.38;;;8.40;99.90;;;;;;7354958;19;20027;-51
2022/12/23 11:49:26;;;;;;;29.13;16.63;;;8.40;99.90;;;;;;7351735;19;20513;-49
2022/12/23 11:52:01;;;;;;;27.98;16.65;;;8.40;99.90;;;;;;7355947;19;20019;-49
2022/12/23 11:54:28;;;;;;;27.23;16.80;;;8.40;99.90;;;;;;7354978;19;20510;-49
2022/12/23 11:56:55;;;;;;;29.63;17.45;;;8.40;99.90;;;;;;7359063;19;20490;-51
2022/12/23 11:59:27;;;;;;;30.33;17.05;;;8.40;99.90;;;;;;7349988;19;20015;-50
2022/12/23 12:01:57;;;;;;;25.55;16.17;;;8.40;99.90;;;;;;7367457;19;20022;-50
2022/12/23 12:04:25;;;;;;;26.88;15.80;;;8.40;99.90;;;;;;7357942;19;20022;-47
2022/12/23 12:06:52;;;;;;;26.88;16.02;;;8.40;99.90;;;;;;7366518;19;20064;-47
2022/12/23 12:09:20;;;;;;;27.67;16.75;;;8.40;99.90;;;;;;7357156;19;20050;-50
2022/12/23 12:11:51;;;;;;;25.70;15.07;;;8.40;99.90;;;;;;7360132;19;20025;-50
2022/12/23 12:14:28;;;;;;;25.27;15.93;;;8.40;99.90;;;;;;7362958;19;20487;-50
2022/12/23 12:17:21;;;;;;;25.67;16.17;;;8.40;99.90;;;;;;7365237;19;20094;-50
2022/12/23 12:20:22;;;;;;;26.50;15.63;;;8.40;99.90;;;;;;7363798;19;20360;-62
2022/12/23 12:23:11;;;;;;;24.60;15.40;;;8.40;99.90;;;;;;7362518;19;20042;-60
2022/12/23 12:25:53;;;;;;;29.15;17.10;;;8.40;99.90;;;;;;7363533;19;20035;-49
2022/12/23 12:28:33;;;;;;;30.17;16.65;;;8.30;99.90;;;;;;7362102;19;20022;-49
2022/12/23 12:31:16;;;;;;;32.95;18.58;;;8.30;99.90;;;;;;7363201;19;20026;-47
2022/12/23 12:33:49;;;;;;;30.40;18.00;;;8.30;99.90;;;;;;7357337;19;20047;-61
2022/12/23 12:36:20;;;;;;;33.33;20.27;;;8.30;99.90;;;;;;7365691;19;20401;-60
2022/12/23 12:38:53;;;;;;;33.08;18.33;;;8.30;99.90;;;;;;7359195;19;20018;-47
2022/12/23 12:41:34;;;;;;;35.78;21.17;;;8.30;99.90;;;;;;7356266;19;20049;-51
2022/12/23 12:44:33;;;;;;;33.10;19.73;;;8.30;99.90;;;;;;7357369;19;20018;-60
2022/12/23 12:47:11;;;;;;;31.48;18.13;;;8.30;99.90;;;;;;7362326;19;20046;-50
2022/12/23 12:49:52;;;;;;;36.00;17.75;;;8.30;99.90;;;;;;7358348;19;20754;-60
2022/12/23 12:52:25;;;;;;;32.13;19.20;;;8.40;99.90;;;;;;7359078;19;20101;-50
2022/12/23 12:55:03;;;;;;;31.30;19.02;;;8.40;99.90;;;;;;7359141;19;20571;-50
2022/12/23 12:57:33;;;;;;;34.50;19.27;;;8.40;99.90;;;;;;7362829;19;20014;-60
2022/12/23 13:00:01;;;;;;;31.65;19.02;;;8.40;99.90;;;;;;7365103;19;20014;-60
2022/12/23 13:02:34;;;;;;;33.22;20.92;;;8.40;99.90;;;;;;7359729;19;20621;-60
2022/12/23 13:05:10;;;;;;;32.30;18.42;;;8.40;99.90;;;;;;7357839;19;20030;-60
2022/12/23 13:08:04;;;;;;;37.28;20.77;;;8.40;99.90;;;;;;7357448;19;20046;-60
2022/12/23 13:10:47;;;;;;;35.33;21.73;;;8.40;99.90;;;;;;7360303;19;20913;-48
2022/12/23 13:13:46;;;;;;;40.08;21.92;;;8.40;99.90;;;;;;7361395;19;20460;-60
2022/12/23 13:16:30;;;;;;;37.22;22.27;;;8.40;99.90;;;;;;7353705;19;20036;-60
2022/12/23 13:19:08;;;;;;;38.30;22.10;;;8.30;99.90;;;;;;7353733;19;20015;-50
2022/12/23 13:21:47;;;;;;;;;;;8.30;99.90;;;;;;7361333;19;20014;-59
2022/12/23 13:24:50;;;;;;;41.83;22.40;;;8.30;99.90;;;;;;7359851;19;20245;-60
2022/12/23 13:27:32;;;;;;;43.63;23.00;;;8.30;99.90;;;;;;7361647;19;20055;-60